createdAt,value
2022-09-14T00:01:33.683Z,17.78
2022-09-14T00:04:05.518Z,17.79
2022-09-14T00:06:34.197Z,17.78
2022-09-14T00:09:02.777Z,17.74
2022-09-14T00:11:32.236Z,17.72
2022-09-14T00:14:02.217Z,17.68
2022-09-14T00:16:34.322Z,17.69
2022-09-14T00:19:05.742Z,17.67
2022-09-14T00:21:41.821Z,17.68
2022-09-14T00:24:11.785Z,17.67
2022-09-14T00:26:39.057Z,17.67
2022-09-14T00:29:06.678Z,17.63
2022-09-14T00:31:37.489Z,17.59
2022-09-14T00:34:07.889Z,17.61
2022-09-14T00:36:42.258Z,17.59
2022-09-14T00:39:10.135Z,17.61
2022-09-14T00:41:41.102Z,17.63
2022-09-14T00:44:11.265Z,17.63
2022-09-14T00:46:45.650Z,17.61
2022-09-14T00:49:35.608Z,17.64
2022-09-14T00:52:16.308Z,17.62
2022-09-14T00:54:52.245Z,17.60
2022-09-14T00:57:21.381Z,17.60
2022-09-14T00:59:51.975Z,17.60
2022-09-14T01:02:22.044Z,17.63
2022-09-14T01:04:50.692Z,17.64
2022-09-14T01:07:45.293Z,17.63
2022-09-14T01:10:36.824Z,17.61
2022-09-14T01:13:31.246Z,17.57
2022-09-14T01:16:47.975Z,17.59
2022-09-14T01:19:42.574Z,17.62
2022-09-14T01:22:32.596Z,17.68
2022-09-14T01:26:00.693Z,17.70
2022-09-14T01:28:48.521Z,17.69
2022-09-14T01:31:44.601Z,17.59
2022-09-14T01:34:56.383Z,17.61
2022-09-14T01:37:42.745Z,17.63
2022-09-14T01:40:30.237Z,17.61
2022-09-14T01:43:20.346Z,17.63
2022-09-14T01:45:56.198Z,17.64
2022-09-14T01:48:34.582Z,17.63
2022-09-14T01:51:10.428Z,17.62
2022-09-14T01:53:53.325Z,17.62
2022-09-14T01:56:33.924Z,17.56
2022-09-14T01:59:39.643Z,17.57
2022-09-14T02:02:20.801Z,17.58
2022-09-14T02:05:08.480Z,17.62
2022-09-14T02:07:37.909Z,17.63
2022-09-14T02:10:11.343Z,17.66
2022-09-14T02:12:40.564Z,17.66
2022-09-14T02:15:12.755Z,17.67
2022-09-14T02:17:40.616Z,17.63
2022-09-14T02:20:19.305Z,17.67
2022-09-14T02:22:46.659Z,17.68
2022-09-14T02:25:14.032Z,17.70
2022-09-14T02:27:41.230Z,17.71
2022-09-14T02:30:09.786Z,17.70
2022-09-14T02:33:08.593Z,17.78
2022-09-14T02:35:41.798Z,17.79
2022-09-14T02:38:34.427Z,17.83
2022-09-14T02:41:17.927Z,17.86
2022-09-14T02:44:10.721Z,17.90
2022-09-14T02:47:05.970Z,17.92
2022-09-14T02:49:51.359Z,17.98
2022-09-14T02:52:27.993Z,18.02
2022-09-14T02:55:06.004Z,18.04
2022-09-14T02:57:33.513Z,18.07
2022-09-14T03:00:00.739Z,18.07
2022-09-14T03:02:27.987Z,18.09
2022-09-14T03:04:55.177Z,18.10
2022-09-14T03:07:22.319Z,18.12
2022-09-14T03:09:49.491Z,18.14
2022-09-14T03:12:16.677Z,18.16
2022-09-14T03:14:43.835Z,18.14
2022-09-14T03:17:11.003Z,18.15
2022-09-14T03:19:38.198Z,18.10
2022-09-14T03:22:05.336Z,18.07
2022-09-14T03:24:32.537Z,18.09
2022-09-14T03:26:59.757Z,18.11
2022-09-14T03:29:26.971Z,18.17
2022-09-14T03:31:54.176Z,18.17
2022-09-14T03:34:21.418Z,18.20
2022-09-14T03:36:48.566Z,18.22
2022-09-14T03:39:15.790Z,18.23
2022-09-14T03:41:42.953Z,18.24
2022-09-14T03:44:10.971Z,18.25
2022-09-14T03:46:38.367Z,18.25
2022-09-14T03:49:05.550Z,18.28
2022-09-14T03:51:34.643Z,18.27
2022-09-14T03:54:02.004Z,18.26
2022-09-14T03:56:29.240Z,18.28
2022-09-14T03:58:57.068Z,18.28
2022-09-14T04:01:25.703Z,18.28
2022-09-14T04:03:52.912Z,18.29
2022-09-14T04:06:20.116Z,18.28
2022-09-14T04:08:48.596Z,18.29
2022-09-14T04:11:24.736Z,18.29
2022-09-14T04:13:53.188Z,18.28
2022-09-14T04:16:22.282Z,18.27
2022-09-14T04:18:49.818Z,18.26
2022-09-14T04:21:21.406Z,18.23
2022-09-14T04:24:13.468Z,18.19
2022-09-14T04:26:36.281Z,18.16
2022-09-14T04:29:04.611Z,18.13
2022-09-14T04:31:32.952Z,18.13
2022-09-14T04:34:00.202Z,18.13
2022-09-14T04:36:29.070Z,18.11
2022-09-14T04:39:00.802Z,18.01
2022-09-14T04:41:30.435Z,18.00
2022-09-14T04:43:58.858Z,17.91
2022-09-14T04:46:32.975Z,17.89
2022-09-14T04:49:00.142Z,17.90
2022-09-14T04:51:31.449Z,17.88
2022-09-14T04:54:00.479Z,17.86
2022-09-14T04:56:38.010Z,17.86
2022-09-14T04:59:06.984Z,17.83
2022-09-14T05:01:38.184Z,17.85
2022-09-14T05:04:07.313Z,17.80
2022-09-14T05:06:37.626Z,17.83
2022-09-14T05:09:10.255Z,17.85
2022-09-14T05:11:37.421Z,17.83
2022-09-14T05:14:05.589Z,17.85
2022-09-14T05:16:37.295Z,17.84
2022-09-14T05:19:13.038Z,17.82
2022-09-14T05:21:40.448Z,17.83
2022-09-14T05:24:21.175Z,17.83
2022-09-14T05:26:48.491Z,17.80
2022-09-14T05:29:18.874Z,17.81
2022-09-14T05:31:47.304Z,17.83
2022-09-14T05:34:14.945Z,17.83
2022-09-14T05:36:42.420Z,17.81
2022-09-14T05:39:10.670Z,17.84
2022-09-14T05:41:38.430Z,17.84
2022-09-14T05:44:06.597Z,17.83
2022-09-14T05:46:34.831Z,17.82
2022-09-14T05:49:02.145Z,17.83
2022-09-14T05:51:29.238Z,17.77
2022-09-14T05:53:59.043Z,17.78
2022-09-14T05:56:30.523Z,17.80
2022-09-14T05:58:57.760Z,17.84
2022-09-14T06:01:29.370Z,17.81
2022-09-14T06:03:59.003Z,17.79
2022-09-14T06:06:26.534Z,17.81
2022-09-14T06:08:54.717Z,17.85
2022-09-14T06:11:29.511Z,17.87
2022-09-14T06:13:57.620Z,17.89
2022-09-14T06:16:27.301Z,17.91
2022-09-14T06:18:57.094Z,17.93
2022-09-14T06:21:29.146Z,17.95
2022-09-14T06:23:56.832Z,17.97
2022-09-14T06:26:24.770Z,17.99
2022-09-14T06:28:52.585Z,17.98
2022-09-14T06:31:20.049Z,17.99
2022-09-14T06:33:49.096Z,18.01
2022-09-14T06:36:21.729Z,18.04
2022-09-14T06:38:49.896Z,18.06
2022-09-14T06:41:22.153Z,18.04
2022-09-14T06:43:50.481Z,18.05
2022-09-14T06:46:25.412Z,18.04
2022-09-14T06:49:00.757Z,18.09
2022-09-14T06:51:33.206Z,18.13
2022-09-14T06:54:02.415Z,18.12
2022-09-14T06:56:33.973Z,18.17
2022-09-14T06:59:01.987Z,18.20
2022-09-14T07:01:29.228Z,18.23
2022-09-14T07:03:57.366Z,18.26
2022-09-14T07:06:28.214Z,18.31
2022-09-14T07:08:56.139Z,18.33
2022-09-14T07:11:27.633Z,18.36
2022-09-14T07:13:56.541Z,18.41
2022-09-14T07:16:23.658Z,18.43
2022-09-14T07:18:54.858Z,18.45
2022-09-14T07:21:22.470Z,18.48
2022-09-14T07:23:50.484Z,18.50
2022-09-14T07:26:24.455Z,18.52
2022-09-14T07:29:03.205Z,18.55
2022-09-14T07:31:47.187Z,18.58
2022-09-14T07:34:15.033Z,18.64
2022-09-14T07:36:43.529Z,18.68
2022-09-14T07:39:14.503Z,18.75
2022-09-14T07:41:42.825Z,18.80
2022-09-14T07:44:14.736Z,18.86
2022-09-14T07:46:44.581Z,18.90
2022-09-14T07:49:12.776Z,18.93
2022-09-14T07:51:40.541Z,19.00
2022-09-14T07:54:12.281Z,19.09
2022-09-14T07:56:40.493Z,19.21
2022-09-14T07:59:33.392Z,19.29
2022-09-14T08:01:54.980Z,19.30
2022-09-14T08:04:22.360Z,19.35
2022-09-14T08:06:49.519Z,19.42
2022-09-14T08:09:16.653Z,19.50
2022-09-14T08:11:43.815Z,19.56
2022-09-14T08:14:12.919Z,19.60
2022-09-14T08:16:41.300Z,19.64
2022-09-14T08:19:14.614Z,19.65
2022-09-14T08:21:46.588Z,19.65
2022-09-14T08:24:19.018Z,19.66
2022-09-14T08:26:48.230Z,19.66
2022-09-14T08:29:17.865Z,19.68
2022-09-14T08:31:46.299Z,19.71
2022-09-14T08:34:16.858Z,19.73
2022-09-14T08:36:46.937Z,19.76
2022-09-14T08:39:16.620Z,19.77
2022-09-14T08:41:43.692Z,19.78
2022-09-14T08:44:25.685Z,19.82
2022-09-14T08:47:31.711Z,19.87
2022-09-14T08:50:22.548Z,19.94
2022-09-14T08:52:55.108Z,20.02
2022-09-14T08:56:04.607Z,20.07
2022-09-14T08:58:48.174Z,20.10
2022-09-14T09:01:23.351Z,20.12
2022-09-14T09:04:20.403Z,20.18
2022-09-14T09:07:09.405Z,20.17
2022-09-14T09:09:49.790Z,20.23
2022-09-14T09:12:24.642Z,20.24
2022-09-14T09:14:58.738Z,20.22
2022-09-14T09:17:33.663Z,20.27
2022-09-14T09:20:32.481Z,20.32
2022-09-14T09:23:22.592Z,20.41
2022-09-14T09:26:00.758Z,20.44
2022-09-14T09:28:29.681Z,20.52
2022-09-14T09:31:03.935Z,20.57
2022-09-14T09:33:32.681Z,20.66
2022-09-14T09:36:00.350Z,20.70
2022-09-14T09:38:29.813Z,20.77
2022-09-14T09:41:15.593Z,20.83
2022-09-14T09:44:02.613Z,20.89
2022-09-14T09:46:50.709Z,20.96
2022-09-14T09:49:25.277Z,21.10
2022-09-14T09:51:53.898Z,21.16
2022-09-14T09:54:31.956Z,21.20
2022-09-14T09:57:27.900Z,21.28
2022-09-14T10:00:20.540Z,21.37
2022-09-14T10:02:48.335Z,21.50
2022-09-14T10:05:21.667Z,21.61
2022-09-14T10:08:02.112Z,21.69
2022-09-14T10:10:35.030Z,21.76
2022-09-14T10:13:06.197Z,21.71
2022-09-14T10:15:35.580Z,21.82
2022-09-14T10:18:11.805Z,21.89
2022-09-14T10:20:42.220Z,22.00
2022-09-14T10:23:18.479Z,22.16
2022-09-14T10:26:14.381Z,22.49
2022-09-14T10:28:47.933Z,23.07
2022-09-14T10:31:23.094Z,23.86
2022-09-14T10:33:56.943Z,24.77
2022-09-14T10:36:39.956Z,25.62
2022-09-14T10:39:37.335Z,26.42
2022-09-14T10:42:16.189Z,26.84
2022-09-14T10:44:53.714Z,27.16
2022-09-14T10:48:06.159Z,27.34
2022-09-14T10:51:10.999Z,27.63
2022-09-14T10:53:56.377Z,27.85
2022-09-14T10:57:15.082Z,27.86
2022-09-14T11:00:10.625Z,27.31
2022-09-14T11:03:04.371Z,26.79
2022-09-14T11:05:55.609Z,26.64
2022-09-14T11:09:09.383Z,26.38
2022-09-14T11:12:04.222Z,26.01
2022-09-14T11:15:28.811Z,25.46
2022-09-14T11:18:05.897Z,25.08
2022-09-14T11:20:49.477Z,24.82
2022-09-14T11:23:48.529Z,25.12
2022-09-14T11:26:19.727Z,25.61
2022-09-14T11:29:23.116Z,25.51
2022-09-14T11:32:24.668Z,25.20
2022-09-14T11:35:15.720Z,24.68
2022-09-14T11:38:13.068Z,24.19
2022-09-14T11:41:12.035Z,23.89
2022-09-14T11:44:01.068Z,23.59
2022-09-14T11:46:36.600Z,23.41
2022-09-14T11:49:46.568Z,23.21
2022-09-14T11:52:27.198Z,23.21
2022-09-14T11:54:55.451Z,23.30
2022-09-14T11:57:34.216Z,23.62
2022-09-14T12:00:09.369Z,23.78
2022-09-14T12:02:36.670Z,23.76
2022-09-14T12:05:06.912Z,23.79
2022-09-14T12:07:40.049Z,24.04
2022-09-14T12:10:16.420Z,24.36
2022-09-14T12:12:46.446Z,24.52
2022-09-14T12:15:26.792Z,24.69
2022-09-14T12:18:06.038Z,24.78
2022-09-14T12:20:37.755Z,24.72
2022-09-14T12:23:27.924Z,24.59
2022-09-14T12:26:00.662Z,24.59
2022-09-14T12:28:37.084Z,24.66
2022-09-14T12:31:04.442Z,24.66
2022-09-14T12:33:31.637Z,24.61
2022-09-14T12:36:10.706Z,24.50
2022-09-14T12:38:37.853Z,24.37
2022-09-14T12:41:10.794Z,24.17
2022-09-14T12:43:37.916Z,23.99
2022-09-14T12:46:31.644Z,23.79
2022-09-14T12:49:00.916Z,23.71
2022-09-14T12:51:28.096Z,23.67
2022-09-14T12:54:38.701Z,23.56
2022-09-14T12:57:15.016Z,23.49
2022-09-14T13:00:13.525Z,23.45
2022-09-14T13:02:51.969Z,23.40
2022-09-14T13:05:27.819Z,23.42
2022-09-14T13:07:56.674Z,23.38
2022-09-14T13:10:35.952Z,23.38
2022-09-14T13:13:15.465Z,23.31
2022-09-14T13:15:57.920Z,23.26
2022-09-14T13:18:32.584Z,23.19
2022-09-14T13:21:04.743Z,23.14
2022-09-14T13:23:42.298Z,23.12
2022-09-14T13:26:29.248Z,23.11
2022-09-14T13:29:01.283Z,23.13
2022-09-14T13:31:36.953Z,23.13
2022-09-14T13:34:05.522Z,23.13
2022-09-14T13:36:41.279Z,23.08
2022-09-14T13:39:26.244Z,23.08
2022-09-14T13:41:55.590Z,23.02
2022-09-14T13:44:45.189Z,23.00
2022-09-14T13:47:15.653Z,23.00
2022-09-14T13:49:45.863Z,22.98
2022-09-14T13:52:38.579Z,22.98
2022-09-14T13:55:23.139Z,22.93
2022-09-14T13:58:11.623Z,22.89
2022-09-14T14:00:54.687Z,22.81
2022-09-14T14:03:39.269Z,22.70
2022-09-14T14:06:33.613Z,22.57
2022-09-14T14:09:09.097Z,22.47
2022-09-14T14:11:51.109Z,22.43
2022-09-14T14:14:28.799Z,22.41
2022-09-14T14:17:29.888Z,22.32
2022-09-14T14:20:00.576Z,22.26
2022-09-14T14:22:35.284Z,22.24
2022-09-14T14:25:19.646Z,22.23
2022-09-14T14:27:49.018Z,22.21
2022-09-14T14:30:20.860Z,22.17
2022-09-14T14:32:56.611Z,22.13
2022-09-14T14:35:28.929Z,22.11
2022-09-14T14:37:57.301Z,22.01
2022-09-14T14:40:27.228Z,22.02
2022-09-14T14:42:57.065Z,21.98
2022-09-14T14:45:26.942Z,21.97
2022-09-14T14:47:55.745Z,21.99
2022-09-14T14:50:30.121Z,21.94
2022-09-14T14:52:57.565Z,21.87
2022-09-14T14:55:25.687Z,21.85
2022-09-14T14:57:54.243Z,21.82
2022-09-14T15:00:24.487Z,21.85
2022-09-14T15:02:51.915Z,21.82
2022-09-14T15:05:20.340Z,21.81
2022-09-14T15:07:47.523Z,21.69
2022-09-14T15:10:17.138Z,21.67
2022-09-14T15:12:45.366Z,21.57
2022-09-14T15:15:15.918Z,21.51
2022-09-14T15:17:43.985Z,21.51
2022-09-14T15:20:13.241Z,21.54
2022-09-14T15:22:41.175Z,21.55
2022-09-14T15:25:10.282Z,21.58
2022-09-14T15:27:37.577Z,21.63
2022-09-14T15:30:07.117Z,21.62
2022-09-14T15:32:34.876Z,21.56
2022-09-14T15:35:02.470Z,21.58
2022-09-14T15:37:29.772Z,21.62
2022-09-14T15:39:57.046Z,21.63
2022-09-14T15:42:24.581Z,21.63
2022-09-14T15:44:51.757Z,21.66
2022-09-14T15:47:18.999Z,21.69
2022-09-14T15:49:46.197Z,21.69
2022-09-14T15:52:13.427Z,21.66
2022-09-14T15:54:40.677Z,21.65
2022-09-14T15:57:11.827Z,21.60
2022-09-14T15:59:39.121Z,21.57
2022-09-14T16:02:07.011Z,21.54
2022-09-14T16:04:39.131Z,21.51
2022-09-14T16:07:08.552Z,21.47
2022-09-14T16:09:38.222Z,21.46
2022-09-14T16:12:06.738Z,21.42
2022-09-14T16:14:34.199Z,21.39
2022-09-14T16:17:01.976Z,21.38
2022-09-14T16:19:29.935Z,21.33
2022-09-14T16:21:57.594Z,21.33
2022-09-14T16:24:26.151Z,21.31
2022-09-14T16:26:54.413Z,21.28
2022-09-14T16:29:22.678Z,21.25
2022-09-14T16:31:50.839Z,21.24
2022-09-14T16:34:26.405Z,21.22
2022-09-14T16:36:54.490Z,21.17
2022-09-14T16:39:28.271Z,21.14
2022-09-14T16:41:55.889Z,21.10
2022-09-14T16:44:28.932Z,21.11
2022-09-14T16:46:58.171Z,21.10
2022-09-14T16:49:28.135Z,21.06
2022-09-14T16:51:57.162Z,21.03
2022-09-14T16:54:30.437Z,20.99
2022-09-14T16:56:58.236Z,20.93
2022-09-14T16:59:26.678Z,20.94
2022-09-14T17:02:11.811Z,20.89
2022-09-14T17:04:39.013Z,20.90
2022-09-14T17:07:07.811Z,20.89
2022-09-14T17:09:40.411Z,20.80
2022-09-14T17:12:15.725Z,20.73
2022-09-14T17:14:45.977Z,20.75
2022-09-14T17:17:13.181Z,20.74
2022-09-14T17:19:43.796Z,20.71
2022-09-14T17:22:11.196Z,20.71
2022-09-14T17:24:38.468Z,20.65
2022-09-14T17:27:05.853Z,20.63
2022-09-14T17:29:33.096Z,20.60
2022-09-14T17:32:00.369Z,20.57
2022-09-14T17:34:27.559Z,20.59
2022-09-14T17:36:54.738Z,20.56
2022-09-14T17:39:25.789Z,20.58
2022-09-14T17:41:53.633Z,20.56
2022-09-14T17:44:21.115Z,20.56
2022-09-14T17:46:52.670Z,20.50
2022-09-14T17:49:22.748Z,20.51
2022-09-14T17:51:51.222Z,20.53
2022-09-14T17:54:19.664Z,20.51
2022-09-14T17:56:46.923Z,20.51
2022-09-14T17:59:19.712Z,20.45
2022-09-14T18:01:48.451Z,20.41
2022-09-14T18:04:17.188Z,20.41
2022-09-14T18:06:51.303Z,20.34
2022-09-14T18:09:26.215Z,20.30
2022-09-14T18:11:56.737Z,20.35
2022-09-14T18:14:24.932Z,20.37
2022-09-14T18:16:52.194Z,20.37
2022-09-14T18:19:19.583Z,20.33
2022-09-14T18:21:51.678Z,20.33
2022-09-14T18:24:20.182Z,20.35
2022-09-14T18:26:47.357Z,20.36
2022-09-14T18:29:17.225Z,20.38
2022-09-14T18:31:44.853Z,20.41
2022-09-14T18:34:12.150Z,20.40
2022-09-14T18:36:39.492Z,20.40
2022-09-14T18:39:06.752Z,20.42
2022-09-14T18:41:34.060Z,20.41
2022-09-14T18:44:03.550Z,20.43
2022-09-14T18:46:31.692Z,20.42
2022-09-14T18:49:01.970Z,20.42
2022-09-14T18:51:31.930Z,20.37
2022-09-14T18:54:02.324Z,20.35
2022-09-14T18:56:30.760Z,20.33
2022-09-14T18:58:58.217Z,20.33
2022-09-14T19:01:26.593Z,20.32
2022-09-14T19:03:54.750Z,20.31
2022-09-14T19:06:23.089Z,20.28
2022-09-14T19:08:51.141Z,20.26
2022-09-14T19:11:21.422Z,20.25
2022-09-14T19:13:54.503Z,20.21
2022-09-14T19:16:22.178Z,20.20
2022-09-14T19:18:50.381Z,20.16
2022-09-14T19:21:24.220Z,20.15
2022-09-14T19:24:11.173Z,20.12
2022-09-14T19:26:45.032Z,20.11
2022-09-14T19:29:15.796Z,20.08
2022-09-14T19:31:43.584Z,20.06
2022-09-14T19:34:11.792Z,20.03
2022-09-14T19:36:39.381Z,20.02
2022-09-14T19:39:06.711Z,20.02
2022-09-14T19:41:35.417Z,20.04
2022-09-14T19:44:04.318Z,20.06
2022-09-14T19:46:31.593Z,20.06
2022-09-14T19:48:58.926Z,20.06
2022-09-14T19:51:29.584Z,20.08
2022-09-14T19:53:59.577Z,20.07
2022-09-14T19:56:30.453Z,20.05
2022-09-14T19:59:00.990Z,20.07
2022-09-14T20:01:30.989Z,20.04
2022-09-14T20:03:58.594Z,20.03
2022-09-14T20:06:31.440Z,19.99
2022-09-14T20:09:09.400Z,19.98
2022-09-14T20:11:39.206Z,19.91
2022-09-14T20:14:10.128Z,19.90
2022-09-14T20:16:41.368Z,19.89
2022-09-14T20:19:13.795Z,19.88
2022-09-14T20:21:42.547Z,19.87
2022-09-14T20:24:18.061Z,19.83
2022-09-14T20:26:50.765Z,19.81
2022-09-14T20:29:20.095Z,19.76
2022-09-14T20:31:48.458Z,19.75
2022-09-14T20:34:18.302Z,19.72
2022-09-14T20:36:45.616Z,19.70
2022-09-14T20:39:13.208Z,19.67
2022-09-14T20:41:41.241Z,19.63
2022-09-14T20:44:09.370Z,19.60
2022-09-14T20:46:44.172Z,19.59
2022-09-14T20:49:15.805Z,19.58
2022-09-14T20:51:44.081Z,19.57
2022-09-14T20:54:15.457Z,19.54
2022-09-14T20:56:43.917Z,19.51
2022-09-14T20:59:16.431Z,19.48
2022-09-14T21:01:47.561Z,19.47
2022-09-14T21:04:19.653Z,19.47
2022-09-14T21:06:50.979Z,19.42
2022-09-14T21:09:18.532Z,19.43
2022-09-14T21:11:47.206Z,19.43
2022-09-14T21:14:18.069Z,19.42
2022-09-14T21:16:48.691Z,19.39
2022-09-14T21:19:28.609Z,19.37
2022-09-14T21:21:56.246Z,19.37
2022-09-14T21:24:24.138Z,19.36
2022-09-14T21:26:51.313Z,19.31
2022-09-14T21:29:22.490Z,19.30
2022-09-14T21:31:49.927Z,19.22
2022-09-14T21:34:18.340Z,19.23
2022-09-14T21:36:51.194Z,19.23
2022-09-14T21:39:24.476Z,19.24
2022-09-14T21:41:58.710Z,19.24
2022-09-14T21:44:35.855Z,19.21
2022-09-14T21:47:04.565Z,19.21
2022-09-14T21:49:32.080Z,19.19
2022-09-14T21:51:59.303Z,19.19
2022-09-14T21:54:26.930Z,19.21
2022-09-14T21:56:54.725Z,19.17
2022-09-14T21:59:23.075Z,19.15
2022-09-14T22:01:50.558Z,19.13
2022-09-14T22:04:23.949Z,19.10
2022-09-14T22:06:52.180Z,19.08
2022-09-14T22:09:22.490Z,19.06
2022-09-14T22:11:50.017Z,19.03
2022-09-14T22:14:22.244Z,19.05
2022-09-14T22:16:50.511Z,19.02
2022-09-14T22:19:23.343Z,19.02
2022-09-14T22:21:51.694Z,18.99
2022-09-14T22:24:37.143Z,18.97
2022-09-14T22:27:10.658Z,18.97
2022-09-14T22:29:40.556Z,18.95
2022-09-14T22:32:08.386Z,18.96
2022-09-14T22:34:35.649Z,18.92
2022-09-14T22:37:03.582Z,18.91
2022-09-14T22:39:30.799Z,18.92
2022-09-14T22:41:57.965Z,18.90
2022-09-14T22:44:25.773Z,18.90
2022-09-14T22:46:52.911Z,18.89
2022-09-14T22:49:20.043Z,18.89
2022-09-14T22:51:47.224Z,18.89
2022-09-14T22:54:14.376Z,18.88
2022-09-14T22:56:41.560Z,18.90
2022-09-14T22:59:11.050Z,18.89
2022-09-14T23:01:41.563Z,18.88
2022-09-14T23:04:12.627Z,18.89
2022-09-14T23:06:46.541Z,18.88
2022-09-14T23:09:20.043Z,18.85
2022-09-14T23:11:47.961Z,18.82
2022-09-14T23:14:16.689Z,18.79
2022-09-14T23:16:44.711Z,18.79
2022-09-14T23:19:16.902Z,18.80
2022-09-14T23:21:44.955Z,18.78
2022-09-14T23:24:12.447Z,18.76
2022-09-14T23:26:39.978Z,18.74
2022-09-14T23:29:14.306Z,18.70
2022-09-14T23:31:41.521Z,18.69
2022-09-14T23:34:08.914Z,18.68
2022-09-14T23:36:36.257Z,18.66
2022-09-14T23:39:03.886Z,18.64
2022-09-14T23:41:31.069Z,18.62
2022-09-14T23:43:58.243Z,18.59
2022-09-14T23:46:25.551Z,18.55
2022-09-14T23:48:53.029Z,18.55
2022-09-14T23:51:20.410Z,18.53
2022-09-14T23:53:47.847Z,18.53
2022-09-14T23:56:15.326Z,18.52
2022-09-14T23:58:43.166Z,18.53
